KLSF/LSF METAR and TAF weather

Enter ICAO airport designator
Station Type Date Time Source
KLSF METAR 2020/01/20 15:56 UTC NOAA

KLSF 201556Z AUTO 33011KT 10SM CLR 03/M08 A3041 RMK AO2 SLP305 T00251082 $


Station Type Date Time Source
KLSF Decoded METAR 2020/01/20 15:56 UTC NOAA

Fort Benning, GA, United States (KLSF) 32-20N 084-50W 130M
Jan 20, 2020 - 10:56 AM EST / 2020.01.20 1556 UTC
Wind: from the NNW (330 degrees) at 13 MPH (11 KT):0
Visibility: 10 mile(s):0
Sky conditions: clear
Temperature: 36.5 F (2.5 C)
Dew Point: 17.2 F (-8.2 C)
Relative Humidity: 45%
Pressure (altimeter): 30.41 in. Hg (1029 hPa)
ob: KLSF 201556Z AUTO 33011KT 10SM CLR 03/M08 A3041 RMK AO2 SLP305 T00251082
cycle: 16

Station Type Date Time Source
KLSF TAF 2020/01/20 10:39 UTC NOAA

TAF TAF
AMD KLSF 201025Z 2010/2115 35010G15KT 9999 SKC QNH3028INS TX07/2020Z TN00/2011Z

Example: see airport list